sensor_id;sensor_type;location;lat;lon;timestamp;pressure;altitude;pressure_sealevel;temperature;humidity
57442;BME280;43284;47.042;15.498;2023-05-09T00:00:10;97765.91;;;8.05;95.46
57442;BME280;43284;47.042;15.498;2023-05-09T00:02:37;97766.72;;;8.08;96.07
57442;BME280;43284;47.042;15.498;2023-05-09T00:05:04;97756.34;;;8.06;95.96
57442;BME280;43284;47.042;15.498;2023-05-09T00:07:32;97750.25;;;8.07;95.77
57442;BME280;43284;47.042;15.498;2023-05-09T00:09:58;97751.13;;;8.06;96.28
57442;BME280;43284;47.042;15.498;2023-05-09T00:12:24;97756.88;;;8.17;98.86
57442;BME280;43284;47.042;15.498;2023-05-09T00:14:49;97754.34;;;8.16;98.02
57442;BME280;43284;47.042;15.498;2023-05-09T00:17:16;97756.94;;;8.16;97.57
57442;BME280;43284;47.042;15.498;2023-05-09T00:19:43;97754.63;;;8.05;96.02
57442;BME280;43284;47.042;15.498;2023-05-09T00:22:09;97752.84;;;8.07;96.43
57442;BME280;43284;47.042;15.498;2023-05-09T00:24:34;97747.69;;;8.05;96.06
57442;BME280;43284;47.042;15.498;2023-05-09T00:27:00;97747.00;;;7.99;95.58
57442;BME280;43284;47.042;15.498;2023-05-09T00:29:26;97740.13;;;7.96;96.14
57442;BME280;43284;47.042;15.498;2023-05-09T00:31:51;97740.94;;;7.98;96.52
57442;BME280;43284;47.042;15.498;2023-05-09T00:34:17;97743.69;;;7.94;96.74
57442;BME280;43284;47.042;15.498;2023-05-09T00:36:42;97744.75;;;7.87;96.08
57442;BME280;43284;47.042;15.498;2023-05-09T00:39:08;97742.19;;;7.85;96.42
57442;BME280;43284;47.042;15.498;2023-05-09T00:41:33;97740.28;;;7.92;97.68
57442;BME280;43284;47.042;15.498;2023-05-09T00:43:59;97735.91;;;7.92;97.63
57442;BME280;43284;47.042;15.498;2023-05-09T00:46:25;97742.78;;;7.95;97.81
57442;BME280;43284;47.042;15.498;2023-05-09T00:48:51;97738.47;;;7.94;97.17
57442;BME280;43284;47.042;15.498;2023-05-09T00:51:17;97735.69;;;8.00;98.37
57442;BME280;43284;47.042;15.498;2023-05-09T00:53:44;97730.53;;;7.98;98.50
57442;BME280;43284;47.042;15.498;2023-05-09T00:56:10;97732.38;;;7.95;97.25
57442;BME280;43284;47.042;15.498;2023-05-09T00:58:36;97726.19;;;7.99;98.65
57442;BME280;43284;47.042;15.498;2023-05-09T01:01:02;97725.25;;;8.00;97.88
57442;BME280;43284;47.042;15.498;2023-05-09T01:03:29;97720.94;;;8.00;98.05
57442;BME280;43284;47.042;15.498;2023-05-09T01:06:02;97721.59;;;8.07;99.33
57442;BME280;43284;47.042;15.498;2023-05-09T01:08:42;97716.41;;;8.07;99.60
57442;BME280;43284;47.042;15.498;2023-05-09T01:14:07;97718.09;;;8.08;99.93
57442;BME280;43284;47.042;15.498;2023-05-09T01:22:12;97710.56;;;7.99;98.49
57442;BME280;43284;47.042;15.498;2023-05-09T01:25:00;97720.44;;;7.88;97.76
57442;BME280;43284;47.042;15.498;2023-05-09T01:27:56;97715.53;;;7.77;97.33
57442;BME280;43284;47.042;15.498;2023-05-09T01:30:24;97714.84;;;7.70;97.35
57442;BME280;43284;47.042;15.498;2023-05-09T01:32:51;97710.47;;;7.72;97.42
57442;BME280;43284;47.042;15.498;2023-05-09T01:35:19;97712.00;;;7.78;97.33
57442;BME280;43284;47.042;15.498;2023-05-09T01:37:48;97715.50;;;7.78;97.36
57442;BME280;43284;47.042;15.498;2023-05-09T01:40:17;97707.63;;;7.80;97.90
57442;BME280;43284;47.042;15.498;2023-05-09T01:42:55;97709.94;;;7.89;99.98
57442;BME280;43284;47.042;15.498;2023-05-09T01:45:23;97709.84;;;7.94;100.00
57442;BME280;43284;47.042;15.498;2023-05-09T01:47:49;97708.75;;;8.01;100.00
57442;BME280;43284;47.042;15.498;2023-05-09T01:50:18;97708.75;;;8.01;100.00
57442;BME280;43284;47.042;15.498;2023-05-09T01:52:46;97715.66;;;8.02;100.00
57442;BME280;43284;47.042;15.498;2023-05-09T01:55:13;97723.84;;;7.90;99.70
57442;BME280;43284;47.042;15.498;2023-05-09T01:57:39;97721.19;;;7.91;99.64
57442;BME280;43284;47.042;15.498;2023-05-09T02:00:07;97712.44;;;7.94;100.00
57442;BME280;43284;47.042;15.498;2023-05-09T02:02:34;97714.81;;;8.01;100.00
57442;BME280;43284;47.042;15.498;2023-05-09T02:05:01;97713.13;;;8.00;99.66
57442;BME280;43284;47.042;15.498;2023-05-09T02:07:28;97713.03;;;8.03;98.97
57442;BME280;43284;47.042;15.498;2023-05-09T02:09:54;97711.34;;;8.02;98.60
57442;BME280;43284;47.042;15.498;2023-05-09T02:12:23;97709.59;;;8.01;98.74
57442;BME280;43284;47.042;15.498;2023-05-09T02:14:49;97711.25;;;8.04;99.03
57442;BME280;43284;47.042;15.498;2023-05-09T02:17:15;97714.69;;;8.06;98.86
57442;BME280;43284;47.042;15.498;2023-05-09T02:19:44;97712.88;;;8.08;98.96
57442;BME280;43284;47.042;15.498;2023-05-09T02:22:11;97712.81;;;8.11;98.73
57442;BME280;43284;47.042;15.498;2023-05-09T02:24:37;97715.28;;;8.16;98.38
57442;BME280;43284;47.042;15.498;2023-05-09T02:27:03;97712.59;;;8.17;98.81
57442;BME280;43284;47.042;15.498;2023-05-09T02:29:50;97717.63;;;8.23;98.20
57442;BME280;43284;47.042;15.498;2023-05-09T02:32:24;97708.13;;;8.22;98.20
57442;BME280;43284;47.042;15.498;2023-05-09T02:34:51;97713.34;;;8.22;97.94
57442;BME280;43284;47.042;15.498;2023-05-09T02:37:19;97715.03;;;8.23;97.49
57442;BME280;43284;47.042;15.498;2023-05-09T02:39:46;97711.53;;;8.24;97.66
57442;BME280;43284;47.042;15.498;2023-05-09T02:42:14;97712.53;;;8.20;97.03
57442;BME280;43284;47.042;15.498;2023-05-09T02:44:40;97716.75;;;8.24;96.85
57442;BME280;43284;47.042;15.498;2023-05-09T02:47:06;97705.44;;;8.24;97.04
57442;BME280;43284;47.042;15.498;2023-05-09T02:49:32;97705.53;;;8.22;95.79
57442;BME280;43284;47.042;15.498;2023-05-09T02:51:59;97704.66;;;8.22;95.85
57442;BME280;43284;47.042;15.498;2023-05-09T02:54:25;97715.03;;;8.23;96.45
57442;BME280;43284;47.042;15.498;2023-05-09T02:56:50;97714.22;;;8.21;95.78
57442;BME280;43284;47.042;15.498;2023-05-09T02:59:17;97717.81;;;8.17;95.00
57442;BME280;43284;47.042;15.498;2023-05-09T03:01:43;97717.88;;;8.16;95.20
57442;BME280;43284;47.042;15.498;2023-05-09T03:04:08;97716.13;;;8.16;94.51
57442;BME280;43284;47.042;15.498;2023-05-09T03:06:33;97710.09;;;8.14;93.91
57442;BME280;43284;47.042;15.498;2023-05-09T03:08:59;97710.09;;;8.14;93.29
57442;BME280;43284;47.042;15.498;2023-05-09T03:11:25;97715.28;;;8.16;93.05
57442;BME280;43284;47.042;15.498;2023-05-09T03:13:50;97723.00;;;8.17;91.96
57442;BME280;43284;47.042;15.498;2023-05-09T03:16:17;97709.19;;;8.15;91.27
57442;BME280;43284;47.042;15.498;2023-05-09T03:18:43;97711.91;;;8.12;91.83
57442;BME280;43284;47.042;15.498;2023-05-09T03:21:08;97714.59;;;8.09;91.85
57442;BME280;43284;47.042;15.498;2023-05-09T03:23:34;97710.31;;;8.07;92.39
57442;BME280;43284;47.042;15.498;2023-05-09T03:26:00;97714.63;;;8.08;92.22
57442;BME280;43284;47.042;15.498;2023-05-09T03:28:27;97714.69;;;8.06;92.03
57442;BME280;43284;47.042;15.498;2023-05-09T03:30:53;97713.13;;;8.00;91.59
57442;BME280;43284;47.042;15.498;2023-05-09T03:33:18;97721.84;;;7.98;92.10
57442;BME280;43284;47.042;15.498;2023-05-09T03:35:44;97727.97;;;7.97;92.44
57442;BME280;43284;47.042;15.498;2023-05-09T03:38:09;97730.56;;;7.97;92.54
57442;BME280;43284;47.042;15.498;2023-05-09T03:40:35;97724.66;;;7.92;91.62
57442;BME280;43284;47.042;15.498;2023-05-09T03:43:00;97731.56;;;7.93;92.21
57442;BME280;43284;47.042;15.498;2023-05-09T03:45:26;97731.66;;;7.90;92.32
57442;BME280;43284;47.042;15.498;2023-05-09T03:47:51;97735.00;;;7.93;93.49
57442;BME280;43284;47.042;15.498;2023-05-09T03:50:17;97729.63;;;7.99;94.54
57442;BME280;43284;47.042;15.498;2023-05-09T03:52:42;97736.63;;;7.97;93.19
57442;BME280;43284;47.042;15.498;2023-05-09T03:55:09;97735.75;;;7.98;92.65
57442;BME280;43284;47.042;15.498;2023-05-09T03:57:34;97731.41;;;7.97;92.20
57442;BME280;43284;47.042;15.498;2023-05-09T04:00:01;97741.66;;;8.03;91.49
57442;BME280;43284;47.042;15.498;2023-05-09T04:02:26;97737.25;;;8.05;91.40
57442;BME280;43284;47.042;15.498;2023-05-09T04:04:52;97743.31;;;8.06;91.26
57442;BME280;43284;47.042;15.498;2023-05-09T04:07:18;97739.75;;;8.09;90.45
57442;BME280;43284;47.042;15.498;2023-05-09T04:09:45;97745.75;;;8.12;90.70
57442;BME280;43284;47.042;15.498;2023-05-09T04:12:10;97742.06;;;8.19;91.09
57442;BME280;43284;47.042;15.498;2023-05-09T04:14:37;97742.13;;;8.18;90.67
57442;BME280;43284;47.042;15.498;2023-05-09T04:17:03;97745.41;;;8.24;90.36
57442;BME280;43284;47.042;15.498;2023-05-09T04:19:28;97745.28;;;8.28;88.96
57442;BME280;43284;47.042;15.498;2023-05-09T04:21:54;97749.56;;;8.30;89.37
57442;BME280;43284;47.042;15.498;2023-05-09T04:24:19;97746.81;;;8.35;90.10
57442;BME280;43284;47.042;15.498;2023-05-09T04:26:45;97751.19;;;8.33;88.70
57442;BME280;43284;47.042;15.498;2023-05-09T04:29:10;97751.06;;;8.37;89.09
57442;BME280;43284;47.042;15.498;2023-05-09T04:31:36;97748.41;;;8.39;88.29
57442;BME280;43284;47.042;15.498;2023-05-09T04:34:01;97748.31;;;8.43;88.22
57442;BME280;43284;47.042;15.498;2023-05-09T04:36:27;97750.84;;;8.47;88.01
57442;BME280;43284;47.042;15.498;2023-05-09T04:38:53;97748.31;;;8.43;87.54
57442;BME280;43284;47.042;15.498;2023-05-09T04:41:18;97748.97;;;8.50;87.15
57442;BME280;43284;47.042;15.498;2023-05-09T04:43:45;97746.31;;;8.52;87.26
57442;BME280;43284;47.042;15.498;2023-05-09T04:46:11;97751.50;;;8.53;86.94
57442;BME280;43284;47.042;15.498;2023-05-09T04:48:37;97746.22;;;8.55;87.96
57442;BME280;43284;47.042;15.498;2023-05-09T04:51:02;97751.41;;;8.56;86.67
57442;BME280;43284;47.042;15.498;2023-05-09T04:53:28;97747.84;;;8.59;86.00
57442;BME280;43284;47.042;15.498;2023-05-09T04:55:53;97748.41;;;8.69;84.68
57442;BME280;43284;47.042;15.498;2023-05-09T04:58:19;97746.00;;;8.62;84.66
57442;BME280;43284;47.042;15.498;2023-05-09T05:00:45;97745.00;;;8.66;84.37
57442;BME280;43284;47.042;15.498;2023-05-09T05:03:11;97750.94;;;8.70;84.60
57442;BME280;43284;47.042;15.498;2023-05-09T05:05:37;97744.16;;;8.66;84.87
57442;BME280;43284;47.042;15.498;2023-05-09T05:08:02;97750.25;;;8.65;84.96
57442;BME280;43284;47.042;15.498;2023-05-09T05:10:28;97754.47;;;8.69;85.75
57442;BME280;43284;47.042;15.498;2023-05-09T05:12:54;97755.38;;;8.68;84.55
57442;BME280;43284;47.042;15.498;2023-05-09T05:15:20;97752.97;;;8.62;84.32
57442;BME280;43284;47.042;15.498;2023-05-09T05:17:46;97760.69;;;8.65;84.38
57442;BME280;43284;47.042;15.498;2023-05-09T05:20:11;97762.34;;;8.68;84.42
57442;BME280;43284;47.042;15.498;2023-05-09T05:22:37;97760.63;;;8.66;84.23
57442;BME280;43284;47.042;15.498;2023-05-09T05:25:02;97761.38;;;8.70;83.48
57442;BME280;43284;47.042;15.498;2023-05-09T05:27:28;97759.56;;;8.72;84.88
57442;BME280;43284;47.042;15.498;2023-05-09T05:29:54;97766.47;;;8.75;84.41
57442;BME280;43284;47.042;15.498;2023-05-09T05:32:19;97762.94;;;8.76;84.04
57442;BME280;43284;47.042;15.498;2023-05-09T05:34:45;97767.22;;;8.78;84.01
57442;BME280;43284;47.042;15.498;2023-05-09T05:37:10;97764.69;;;8.77;84.11
57442;BME280;43284;47.042;15.498;2023-05-09T05:39:36;97765.53;;;8.77;83.80
57442;BME280;43284;47.042;15.498;2023-05-09T05:42:01;97762.06;;;8.77;83.81
57442;BME280;43284;47.042;15.498;2023-05-09T05:44:27;97768.06;;;8.79;84.68
57442;BME280;43284;47.042;15.498;2023-05-09T05:46:53;97767.06;;;8.83;84.80
57442;BME280;43284;47.042;15.498;2023-05-09T05:49:18;97770.47;;;8.85;85.13
57442;BME280;43284;47.042;15.498;2023-05-09T05:51:43;97765.22;;;8.86;83.76
57442;BME280;43284;47.042;15.498;2023-05-09T05:54:09;97765.19;;;8.88;83.96
57442;BME280;43284;47.042;15.498;2023-05-09T05:56:35;97763.28;;;8.93;83.95
57442;BME280;43284;47.042;15.498;2023-05-09T05:59:01;97766.63;;;8.97;83.69
57442;BME280;43284;47.042;15.498;2023-05-09T06:01:26;97757.72;;;9.04;82.54
57442;BME280;43284;47.042;15.498;2023-05-09T06:03:52;97765.34;;;9.10;82.57
57442;BME280;43284;47.042;15.498;2023-05-09T06:06:20;97759.91;;;9.16;82.03
57442;BME280;43284;47.042;15.498;2023-05-09T06:08:46;97767.50;;;9.22;81.95
57442;BME280;43284;47.042;15.498;2023-05-09T06:11:14;97763.03;;;9.27;82.22
57442;BME280;43284;47.042;15.498;2023-05-09T06:13:40;97762.94;;;9.29;80.77
57442;BME280;43284;47.042;15.498;2023-05-09T06:16:06;97763.88;;;9.28;80.19
57442;BME280;43284;47.042;15.498;2023-05-09T06:18:34;97756.88;;;9.28;79.29
57442;BME280;43284;47.042;15.498;2023-05-09T06:20:59;97755.88;;;9.33;80.19
57442;BME280;43284;47.042;15.498;2023-05-09T06:23:25;97753.28;;;9.33;78.98
57442;BME280;43284;47.042;15.498;2023-05-09T06:25:51;97754.03;;;9.36;78.95
57442;BME280;43284;47.042;15.498;2023-05-09T06:28:16;97753.06;;;9.39;79.30
57442;BME280;43284;47.042;15.498;2023-05-09T06:30:42;97754.81;;;9.38;78.38
57442;BME280;43284;47.042;15.498;2023-05-09T06:33:07;97752.78;;;9.46;78.51
57442;BME280;43284;47.042;15.498;2023-05-09T08:56:07;97671.66;;;12.09;69.94
57442;BME280;43284;47.042;15.498;2023-05-09T08:58:33;97683.66;;;12.32;69.78
57442;BME280;43284;47.042;15.498;2023-05-09T09:00:59;97679.63;;;12.44;68.97
57442;BME280;43284;47.042;15.498;2023-05-09T09:03:29;97680.84;;;12.54;69.02
57442;BME280;43284;47.042;15.498;2023-05-09T09:05:55;97679.72;;;12.60;68.61
57442;BME280;43284;47.042;15.498;2023-05-09T09:08:22;97676.31;;;12.58;68.30
57442;BME280;43284;47.042;15.498;2023-05-09T09:10:47;97675.03;;;12.67;68.54
57442;BME280;43284;47.042;15.498;2023-05-09T09:13:14;97673.56;;;12.78;68.15
57442;BME280;43284;47.042;15.498;2023-05-09T09:15:43;97669.41;;;12.92;68.28
57442;BME280;43284;47.042;15.498;2023-05-09T09:18:17;97669.88;;;13.00;68.62
57442;BME280;43284;47.042;15.498;2023-05-09T09:20:55;97664.63;;;13.00;65.92
57442;BME280;43284;47.042;15.498;2023-05-09T09:23:24;97660.09;;;13.04;67.34
57442;BME280;43284;47.042;15.498;2023-05-09T09:26:00;97661.00;;;13.03;66.78
57442;BME280;43284;47.042;15.498;2023-05-09T09:28:26;97662.84;;;13.01;66.19
57442;BME280;43284;47.042;15.498;2023-05-09T09:30:52;97659.38;;;13.17;66.55
57442;BME280;43284;47.042;15.498;2023-05-09T09:33:19;97657.47;;;13.21;65.75
57442;BME280;43284;47.042;15.498;2023-05-09T09:35:47;97656.50;;;13.22;67.15
57442;BME280;43284;47.042;15.498;2023-05-09T09:38:13;97654.91;;;13.37;66.27
57442;BME280;43284;47.042;15.498;2023-05-09T09:40:38;97649.34;;;13.26;64.36
57442;BME280;43284;47.042;15.498;2023-05-09T09:43:05;97653.44;;;13.31;66.19
57442;BME280;43284;47.042;15.498;2023-05-09T09:45:31;97651.44;;;13.36;66.55
57442;BME280;43284;47.042;15.498;2023-05-09T09:47:57;97652.06;;;13.42;65.71
57442;BME280;43284;47.042;15.498;2023-05-09T09:50:22;97654.88;;;13.54;65.95
57442;BME280;43284;47.042;15.498;2023-05-09T09:52:53;97645.72;;;13.46;65.45
57442;BME280;43284;47.042;15.498;2023-05-09T09:55:21;97640.03;;;13.53;65.41
57442;BME280;43284;47.042;15.498;2023-05-09T09:57:48;97641.94;;;13.67;65.88
57442;BME280;43284;47.042;15.498;2023-05-09T10:00:15;97637.88;;;13.62;63.76
57442;BME280;43284;47.042;15.498;2023-05-09T10:05:32;97631.72;;;13.78;65.65
57442;BME280;43284;47.042;15.498;2023-05-09T10:07:59;97630.13;;;13.92;65.59
57442;BME280;43284;47.042;15.498;2023-05-09T10:10:30;97637.75;;;13.96;66.57
57442;BME280;43284;47.042;15.498;2023-05-09T10:12:57;97630.97;;;14.08;64.94
57442;BME280;43284;47.042;15.498;2023-05-09T10:15:24;97626.56;;;14.25;63.00
57442;BME280;43284;47.042;15.498;2023-05-09T10:17:55;97625.44;;;14.29;63.09
57442;BME280;43284;47.042;15.498;2023-05-09T10:20:21;97621.38;;;14.23;63.72
57442;BME280;43284;47.042;15.498;2023-05-09T10:22:48;97612.56;;;14.24;64.43
57442;BME280;43284;47.042;15.498;2023-05-09T10:25:21;97619.59;;;14.39;64.59
57442;BME280;43284;47.042;15.498;2023-05-09T10:27:53;97618.25;;;14.32;62.85
57442;BME280;43284;47.042;15.498;2023-05-09T10:30:35;97621.00;;;14.45;64.64
57442;BME280;43284;47.042;15.498;2023-05-09T10:33:09;97624.44;;;14.31;63.35
57442;BME280;43284;47.042;15.498;2023-05-09T10:35:39;97615.75;;;14.45;63.88
57442;BME280;43284;47.042;15.498;2023-05-09T10:38:06;97617.31;;;14.33;61.67
57442;BME280;43284;47.042;15.498;2023-05-09T10:40:33;97606.59;;;14.36;61.49
57442;BME280;43284;47.042;15.498;2023-05-09T10:42:59;97607.97;;;14.43;62.70
57442;BME280;43284;47.042;15.498;2023-05-09T10:45:25;97609.97;;;14.54;62.29
57442;BME280;43284;47.042;15.498;2023-05-09T10:47:51;97613.28;;;14.58;62.43
57442;BME280;43284;47.042;15.498;2023-05-09T10:50:17;97612.78;;;14.51;63.48
57442;BME280;43284;47.042;15.498;2023-05-09T10:58:31;97601.41;;;14.51;61.80
57442;BME280;43284;47.042;15.498;2023-05-09T11:01:03;97597.75;;;14.53;63.36
57442;BME280;43284;47.042;15.498;2023-05-09T11:03:52;97591.28;;;14.75;62.41
57442;BME280;43284;47.042;15.498;2023-05-09T11:09:34;97589.28;;;14.64;62.64
57442;BME280;43284;47.042;15.498;2023-05-09T11:12:09;97589.81;;;14.55;63.03
57442;BME280;43284;47.042;15.498;2023-05-09T11:17:05;97574.19;;;14.82;59.29
57442;BME280;43284;47.042;15.498;2023-05-09T11:22:13;97572.03;;;14.89;62.40
57442;BME280;43284;47.042;15.498;2023-05-09T11:24:39;97566.59;;;15.06;62.80
57442;BME280;43284;47.042;15.498;2023-05-09T11:27:21;97560.34;;;15.09;60.70
57442;BME280;43284;47.042;15.498;2023-05-09T11:29:52;97568.13;;;15.10;61.00
57442;BME280;43284;47.042;15.498;2023-05-09T11:32:21;97556.25;;;15.17;61.46
57442;BME280;43284;47.042;15.498;2023-05-09T11:34:51;97561.81;;;15.13;61.92
57442;BME280;43284;47.042;15.498;2023-05-09T11:37:17;97561.38;;;15.20;60.49
57442;BME280;43284;47.042;15.498;2023-05-09T11:39:58;97552.13;;;15.28;62.01
57442;BME280;43284;47.042;15.498;2023-05-09T11:42:27;97546.03;;;15.41;62.11
57442;BME280;43284;47.042;15.498;2023-05-09T11:44:54;97543.41;;;15.41;60.13
57442;BME280;43284;47.042;15.498;2023-05-09T11:47:20;97541.75;;;14.81;59.85
57442;BME280;43284;47.042;15.498;2023-05-09T11:49:47;97536.91;;;15.18;58.44
57442;BME280;43284;47.042;15.498;2023-05-09T11:52:14;97533.06;;;15.24;60.55
57442;BME280;43284;47.042;15.498;2023-05-09T11:54:40;97536.44;;;15.40;62.29
57442;BME280;43284;47.042;15.498;2023-05-09T11:57:06;97527.28;;;15.75;61.06
57442;BME280;43284;47.042;15.498;2023-05-09T11:59:33;97531.47;;;15.92;58.52
57442;BME280;43284;47.042;15.498;2023-05-09T12:02:03;97521.81;;;15.78;58.39
57442;BME280;43284;47.042;15.498;2023-05-09T12:04:30;97523.31;;;15.82;59.17
57442;BME280;43284;47.042;15.498;2023-05-09T12:07:00;97518.19;;;15.93;59.95
57442;BME280;43284;47.042;15.498;2023-05-09T12:09:30;97523.88;;;16.14;61.08
57442;BME280;43284;47.042;15.498;2023-05-09T12:12:00;97510.84;;;16.38;60.68
57442;BME280;43284;47.042;15.498;2023-05-09T12:14:30;97511.47;;;16.29;58.73
57442;BME280;43284;47.042;15.498;2023-05-09T12:16:56;97510.31;;;16.46;56.82
57442;BME280;43284;47.042;15.498;2023-05-09T12:19:26;97503.13;;;16.35;58.15
57442;BME280;43284;47.042;15.498;2023-05-09T12:21:59;97504.63;;;16.39;59.71
57442;BME280;43284;47.042;15.498;2023-05-09T12:24:26;97515.00;;;16.42;59.93
57442;BME280;43284;47.042;15.498;2023-05-09T12:26:52;97497.16;;;16.59;59.95
57442;BME280;43284;47.042;15.498;2023-05-09T12:29:20;97491.69;;;16.62;57.38
57442;BME280;43284;47.042;15.498;2023-05-09T12:31:46;97483.78;;;16.87;56.93
57442;BME280;43284;47.042;15.498;2023-05-09T12:34:12;97484.13;;;16.96;57.81
57442;BME280;43284;47.042;15.498;2023-05-09T12:36:38;97483.28;;;17.21;57.14
57442;BME280;43284;47.042;15.498;2023-05-09T12:39:08;97478.16;;;17.30;57.12
57442;BME280;43284;47.042;15.498;2023-05-09T12:41:50;97477.03;;;17.59;56.97
57442;BME280;43284;47.042;15.498;2023-05-09T12:44:25;97471.72;;;17.71;55.45
57442;BME280;43284;47.042;15.498;2023-05-09T12:47:02;97471.06;;;17.44;54.53
57442;BME280;43284;47.042;15.498;2023-05-09T12:49:29;97469.09;;;17.22;57.21
57442;BME280;43284;47.042;15.498;2023-05-09T12:51:57;97463.41;;;17.15;54.73
57442;BME280;43284;47.042;15.498;2023-05-09T12:54:27;97454.53;;;17.53;54.85
57442;BME280;43284;47.042;15.498;2023-05-09T12:56:54;97450.44;;;17.73;55.02
57442;BME280;43284;47.042;15.498;2023-05-09T12:59:24;97444.94;;;17.76;54.85
57442;BME280;43284;47.042;15.498;2023-05-09T13:01:56;97440.75;;;17.98;53.32
57442;BME280;43284;47.042;15.498;2023-05-09T13:04:23;97439.09;;;17.84;53.92
57442;BME280;43284;47.042;15.498;2023-05-09T13:06:50;97434.25;;;18.26;54.70
57442;BME280;43284;47.042;15.498;2023-05-09T13:09:17;97434.25;;;18.26;53.24
57442;BME280;43284;47.042;15.498;2023-05-09T13:11:43;97421.78;;;18.50;54.10
57442;BME280;43284;47.042;15.498;2023-05-09T13:14:09;97421.31;;;18.57;51.94
57442;BME280;43284;47.042;15.498;2023-05-09T13:16:35;97416.97;;;18.56;50.29
57442;BME280;43284;47.042;15.498;2023-05-09T13:19:00;97415.41;;;18.76;51.25
57442;BME280;43284;47.042;15.498;2023-05-09T13:21:26;97421.03;;;18.37;49.61
57442;BME280;43284;47.042;15.498;2023-05-09T13:23:51;97417.88;;;17.73;50.88
57442;BME280;43284;47.042;15.498;2023-05-09T13:26:18;97412.19;;;18.25;51.35
57442;BME280;43284;47.042;15.498;2023-05-09T13:28:44;97409.34;;;18.28;50.05
57442;BME280;43284;47.042;15.498;2023-05-09T13:31:09;97410.66;;;18.34;51.06
57442;BME280;43284;47.042;15.498;2023-05-09T13:33:35;97414.66;;;17.93;51.44
57442;BME280;43284;47.042;15.498;2023-05-09T13:36:00;97406.88;;;18.14;49.98
57442;BME280;43284;47.042;15.498;2023-05-09T13:38:26;97404.31;;;17.77;52.21
57442;BME280;43284;47.042;15.498;2023-05-09T13:40:55;97406.50;;;18.07;51.03
57442;BME280;43284;47.042;15.498;2023-05-09T13:43:21;97409.78;;;18.11;51.03
57442;BME280;43284;47.042;15.498;2023-05-09T13:45:46;97399.50;;;17.95;51.99
57442;BME280;43284;47.042;15.498;2023-05-09T13:48:11;97396.59;;;17.87;51.59
57442;BME280;43284;47.042;15.498;2023-05-09T13:50:37;97398.06;;;17.54;50.59
57442;BME280;43284;47.042;15.498;2023-05-09T13:53:02;97404.69;;;17.60;52.10
57442;BME280;43284;47.042;15.498;2023-05-09T13:55:28;97396.56;;;17.39;52.51
57442;BME280;43284;47.042;15.498;2023-05-09T13:57:55;97393.13;;;17.13;51.93
57442;BME280;43284;47.042;15.498;2023-05-09T14:00:21;97385.09;;;17.14;53.69
57442;BME280;43284;47.042;15.498;2023-05-09T14:02:50;97385.22;;;17.13;54.13
57442;BME280;43284;47.042;15.498;2023-05-09T14:05:15;97385.00;;;17.03;53.76
57442;BME280;43284;47.042;15.498;2023-05-09T14:07:41;97379.84;;;17.01;53.35
57442;BME280;43284;47.042;15.498;2023-05-09T14:10:07;97377.63;;;17.08;53.29
57442;BME280;43284;47.042;15.498;2023-05-09T14:12:32;97374.34;;;17.04;52.62
57442;BME280;43284;47.042;15.498;2023-05-09T14:14:58;97374.84;;;17.09;52.33
57442;BME280;43284;47.042;15.498;2023-05-09T14:17:23;97373.69;;;17.14;53.40
57442;BME280;43284;47.042;15.498;2023-05-09T14:19:49;97366.97;;;16.97;54.67
57442;BME280;43284;47.042;15.498;2023-05-09T14:22:14;97367.84;;;16.84;55.73
57442;BME280;43284;47.042;15.498;2023-05-09T14:24:40;97364.97;;;16.87;53.68
57442;BME280;43284;47.042;15.498;2023-05-09T14:27:06;97366.91;;;16.60;53.81
57442;BME280;43284;47.042;15.498;2023-05-09T14:29:31;97366.03;;;16.59;54.21
57442;BME280;43284;47.042;15.498;2023-05-09T14:31:57;97360.00;;;16.57;55.78
57442;BME280;43284;47.042;15.498;2023-05-09T14:34:22;97361.63;;;16.34;54.35
57442;BME280;43284;47.042;15.498;2023-05-09T14:36:48;97363.75;;;16.29;54.38
57442;BME280;43284;47.042;15.498;2023-05-09T14:39:14;97365.50;;;16.41;55.05
57442;BME280;43284;47.042;15.498;2023-05-09T14:41:40;97361.94;;;16.42;54.80
57442;BME280;43284;47.042;15.498;2023-05-09T14:44:05;97358.88;;;16.23;54.83
57442;BME280;43284;47.042;15.498;2023-05-09T14:46:31;97358.56;;;16.15;55.96
57442;BME280;43284;47.042;15.498;2023-05-09T14:48:57;97355.81;;;16.16;55.66
57442;BME280;43284;47.042;15.498;2023-05-09T14:51:29;97353.19;;;16.16;55.89
57442;BME280;43284;47.042;15.498;2023-05-09T14:53:56;97350.53;;;16.42;55.18
57442;BME280;43284;47.042;15.498;2023-05-09T14:56:22;97353.91;;;16.82;55.02
57442;BME280;43284;47.042;15.498;2023-05-09T14:58:47;97343.63;;;17.03;55.24
57442;BME280;43284;47.042;15.498;2023-05-09T15:01:13;97338.97;;;16.94;54.11
57442;BME280;43284;47.042;15.498;2023-05-09T15:03:40;97339.88;;;16.82;53.76
57442;BME280;43284;47.042;15.498;2023-05-09T15:06:05;97343.88;;;16.62;54.94
57442;BME280;43284;47.042;15.498;2023-05-09T15:08:31;97341.75;;;16.67;54.91
57442;BME280;43284;47.042;15.498;2023-05-09T15:10:56;97346.72;;;16.72;55.23
57442;BME280;43284;47.042;15.498;2023-05-09T15:13:22;97342.59;;;16.55;55.57
57442;BME280;43284;47.042;15.498;2023-05-09T15:15:48;97342.31;;;16.46;57.24
57442;BME280;43284;47.042;15.498;2023-05-09T15:18:13;97345.47;;;16.39;57.31
57442;BME280;43284;47.042;15.498;2023-05-09T15:20:41;97337.56;;;16.39;56.99
57442;BME280;43284;47.042;15.498;2023-05-09T15:23:07;97343.16;;;16.34;57.83
57442;BME280;43284;47.042;15.498;2023-05-09T15:25:33;97338.84;;;16.20;57.09
57442;BME280;43284;47.042;15.498;2023-05-09T15:27:59;97341.06;;;16.14;56.52
57442;BME280;43284;47.042;15.498;2023-05-09T15:30:24;97336.38;;;16.04;57.13
57442;BME280;43284;47.042;15.498;2023-05-09T15:32:50;97321.28;;;15.94;56.60
57442;BME280;43284;47.042;15.498;2023-05-09T15:35:16;97323.63;;;15.98;56.68
57442;BME280;43284;47.042;15.498;2023-05-09T15:37:43;97325.81;;;15.92;56.73
57442;BME280;43284;47.042;15.498;2023-05-09T15:40:09;97323.94;;;15.81;57.63